Weather at Talmei Yosef Airstrip

Public forecast

Using degrees Celsius for public forecast. Weather courtesy of forecast.io.

Closest aviation weather report (METAR) to Talmei Yosef Airstrip

Closest report is El Arish International Airport, 27.9 nm (51.8 km) W.

2024/02/24 16:00 (retrieved 57 minutes ago)

HEAR 241600Z 35005KT CAVOK 19/12 Q1020 NOSIG

Closest aviation forecast (TAF) to Talmei Yosef Airstrip

Closest forecast is El Arish International Airport, 27.9 nm (51.8 km) W.

2024/02/24 12:08 (retrieved 5 hours ago)

TAF HEAR 241100Z 2412/2518 34009KT 9999 SCT025 TEMPO 2412/2415 4000 RA BKN020